sensor_id;sensor_type;location;lat;lon;timestamp;P1;durP1;ratioP1;P2;durP2;ratioP2
33987;SDS011;37428;53.580;-1.666;2023-06-22T00:02:53;4.68;;;3.33;;
33987;SDS011;37428;53.580;-1.666;2023-06-22T00:06:09;3.75;;;3.45;;
33987;SDS011;37428;53.580;-1.666;2023-06-22T00:09:13;3.60;;;3.38;;
33987;SDS011;37428;53.580;-1.666;2023-06-22T00:12:17;3.97;;;3.60;;
33987;SDS011;37428;53.580;-1.666;2023-06-22T00:15:19;4.30;;;3.90;;
33987;SDS011;37428;53.580;-1.666;2023-06-22T00:18:22;4.05;;;3.75;;
33987;SDS011;37428;53.580;-1.666;2023-06-22T00:21:33;4.28;;;3.88;;
33987;SDS011;37428;53.580;-1.666;2023-06-22T00:24:37;4.32;;;3.92;;
33987;SDS011;37428;53.580;-1.666;2023-06-22T00:27:39;3.35;;;3.05;;
33987;SDS011;37428;53.580;-1.666;2023-06-22T00:30:55;4.88;;;4.03;;
33987;SDS011;37428;53.580;-1.666;2023-06-22T00:33:59;4.85;;;4.03;;
33987;SDS011;37428;53.580;-1.666;2023-06-22T00:37:01;3.45;;;3.15;;
33987;SDS011;37428;53.580;-1.666;2023-06-22T00:40:10;5.28;;;3.30;;
33987;SDS011;37428;53.580;-1.666;2023-06-22T00:43:16;6.03;;;3.60;;
33987;SDS011;37428;53.580;-1.666;2023-06-22T00:46:18;4.43;;;3.50;;
33987;SDS011;37428;53.580;-1.666;2023-06-22T00:49:22;3.83;;;3.53;;
33987;SDS011;37428;53.580;-1.666;2023-06-22T00:52:24;5.95;;;3.95;;
33987;SDS011;37428;53.580;-1.666;2023-06-22T00:55:29;4.70;;;4.10;;
33987;SDS011;37428;53.580;-1.666;2023-06-22T00:58:31;4.22;;;3.83;;
33987;SDS011;37428;53.580;-1.666;2023-06-22T01:01:34;4.50;;;4.10;;
33987;SDS011;37428;53.580;-1.666;2023-06-22T01:04:43;4.18;;;3.78;;
33987;SDS011;37428;53.580;-1.666;2023-06-22T01:07:59;4.15;;;3.75;;
33987;SDS011;37428;53.580;-1.666;2023-06-22T01:11:22;4.18;;;3.75;;
33987;SDS011;37428;53.580;-1.666;2023-06-22T01:14:31;4.35;;;3.95;;
33987;SDS011;37428;53.580;-1.666;2023-06-22T01:17:38;5.40;;;4.22;;
33987;SDS011;37428;53.580;-1.666;2023-06-22T01:20:47;3.75;;;3.45;;
33987;SDS011;37428;53.580;-1.666;2023-06-22T01:23:53;4.13;;;3.67;;
33987;SDS011;37428;53.580;-1.666;2023-06-22T01:27:07;6.43;;;4.50;;
33987;SDS011;37428;53.580;-1.666;2023-06-22T01:30:28;5.68;;;3.55;;
33987;SDS011;37428;53.580;-1.666;2023-06-22T01:33:34;5.45;;;4.32;;
33987;SDS011;37428;53.580;-1.666;2023-06-22T01:36:38;4.07;;;3.67;;
33987;SDS011;37428;53.580;-1.666;2023-06-22T01:39:41;4.18;;;3.88;;
33987;SDS011;37428;53.580;-1.666;2023-06-22T01:42:46;6.20;;;4.65;;
33987;SDS011;37428;53.580;-1.666;2023-06-22T01:45:50;4.68;;;4.28;;
33987;SDS011;37428;53.580;-1.666;2023-06-22T01:48:53;4.60;;;4.20;;
33987;SDS011;37428;53.580;-1.666;2023-06-22T01:51:56;4.65;;;4.35;;
33987;SDS011;37428;53.580;-1.666;2023-06-22T01:54:58;4.78;;;4.25;;
33987;SDS011;37428;53.580;-1.666;2023-06-22T01:58:03;5.82;;;5.13;;
33987;SDS011;37428;53.580;-1.666;2023-06-22T02:01:09;4.70;;;3.83;;
33987;SDS011;37428;53.580;-1.666;2023-06-22T02:04:24;4.15;;;3.75;;
33987;SDS011;37428;53.580;-1.666;2023-06-22T02:07:31;4.95;;;3.90;;
33987;SDS011;37428;53.580;-1.666;2023-06-22T02:10:35;4.50;;;4.10;;
33987;SDS011;37428;53.580;-1.666;2023-06-22T02:13:41;4.65;;;4.25;;
33987;SDS011;37428;53.580;-1.666;2023-06-22T02:19:47;4.82;;;3.85;;
33987;SDS011;37428;53.580;-1.666;2023-06-22T02:22:49;3.80;;;3.50;;
33987;SDS011;37428;53.580;-1.666;2023-06-22T02:25:51;4.00;;;3.67;;
33987;SDS011;37428;53.580;-1.666;2023-06-22T02:28:54;3.88;;;3.33;;
33987;SDS011;37428;53.580;-1.666;2023-06-22T02:31:57;4.13;;;3.40;;
33987;SDS011;37428;53.580;-1.666;2023-06-22T02:34:59;3.47;;;3.17;;
33987;SDS011;37428;53.580;-1.666;2023-06-22T02:38:04;3.85;;;3.08;;
33987;SDS011;37428;53.580;-1.666;2023-06-22T02:41:06;3.47;;;3.15;;
33987;SDS011;37428;53.580;-1.666;2023-06-22T02:44:19;4.00;;;3.60;;
33987;SDS011;37428;53.580;-1.666;2023-06-22T02:47:23;4.25;;;3.60;;
33987;SDS011;37428;53.580;-1.666;2023-06-22T02:50:25;5.82;;;3.53;;
33987;SDS011;37428;53.580;-1.666;2023-06-22T02:53:28;5.07;;;3.15;;
33987;SDS011;37428;53.580;-1.666;2023-06-22T02:56:31;3.53;;;3.22;;
33987;SDS011;37428;53.580;-1.666;2023-06-22T03:02:45;4.22;;;3.83;;
33987;SDS011;37428;53.580;-1.666;2023-06-22T03:05:48;5.72;;;4.20;;
33987;SDS011;37428;53.580;-1.666;2023-06-22T03:08:57;3.50;;;3.22;;
33987;SDS011;37428;53.580;-1.666;2023-06-22T03:12:07;3.30;;;3.00;;
33987;SDS011;37428;53.580;-1.666;2023-06-22T03:15:11;4.60;;;3.20;;
33987;SDS011;37428;53.580;-1.666;2023-06-22T03:18:15;4.63;;;3.20;;
33987;SDS011;37428;53.580;-1.666;2023-06-22T03:21:17;5.90;;;4.32;;
33987;SDS011;37428;53.580;-1.666;2023-06-22T03:24:19;3.97;;;3.38;;
33987;SDS011;37428;53.580;-1.666;2023-06-22T03:27:21;6.32;;;4.03;;
33987;SDS011;37428;53.580;-1.666;2023-06-22T03:30:23;5.47;;;4.20;;
33987;SDS011;37428;53.580;-1.666;2023-06-22T03:33:27;4.68;;;3.83;;
33987;SDS011;37428;53.580;-1.666;2023-06-22T03:36:29;5.72;;;4.97;;
33987;SDS011;37428;53.580;-1.666;2023-06-22T03:39:32;4.95;;;3.85;;
33987;SDS011;37428;53.580;-1.666;2023-06-22T03:42:34;6.25;;;4.72;;
33987;SDS011;37428;53.580;-1.666;2023-06-22T03:45:36;4.25;;;3.75;;
33987;SDS011;37428;53.580;-1.666;2023-06-22T03:48:41;4.10;;;3.70;;
33987;SDS011;37428;53.580;-1.666;2023-06-22T03:51:44;4.72;;;4.32;;
33987;SDS011;37428;53.580;-1.666;2023-06-22T03:54:46;5.95;;;4.15;;
33987;SDS011;37428;53.580;-1.666;2023-06-22T03:57:49;4.50;;;4.10;;
33987;SDS011;37428;53.580;-1.666;2023-06-22T04:00:56;4.63;;;3.70;;
33987;SDS011;37428;53.580;-1.666;2023-06-22T04:04:02;4.93;;;3.88;;
33987;SDS011;37428;53.580;-1.666;2023-06-22T04:07:04;5.25;;;3.72;;
33987;SDS011;37428;53.580;-1.666;2023-06-22T04:10:06;3.65;;;3.35;;
33987;SDS011;37428;53.580;-1.666;2023-06-22T04:13:09;4.82;;;3.20;;
33987;SDS011;37428;53.580;-1.666;2023-06-22T04:16:11;4.30;;;3.75;;
33987;SDS011;37428;53.580;-1.666;2023-06-22T04:19:15;4.20;;;3.85;;
33987;SDS011;37428;53.580;-1.666;2023-06-22T04:22:17;3.72;;;3.42;;
33987;SDS011;37428;53.580;-1.666;2023-06-22T04:25:20;4.57;;;3.70;;
33987;SDS011;37428;53.580;-1.666;2023-06-22T04:28:22;4.63;;;3.30;;
33987;SDS011;37428;53.580;-1.666;2023-06-22T04:31:26;4.65;;;3.72;;
33987;SDS011;37428;53.580;-1.666;2023-06-22T04:34:33;4.10;;;3.80;;
33987;SDS011;37428;53.580;-1.666;2023-06-22T04:37:38;3.85;;;3.53;;
33987;SDS011;37428;53.580;-1.666;2023-06-22T04:40:40;3.83;;;3.45;;
33987;SDS011;37428;53.580;-1.666;2023-06-22T04:43:44;3.50;;;3.30;;
33987;SDS011;37428;53.580;-1.666;2023-06-22T04:47:01;3.78;;;2.92;;
33987;SDS011;37428;53.580;-1.666;2023-06-22T04:50:09;4.78;;;3.75;;
33987;SDS011;37428;53.580;-1.666;2023-06-22T04:53:12;4.57;;;3.10;;
33987;SDS011;37428;53.580;-1.666;2023-06-22T04:56:16;3.45;;;3.13;;
33987;SDS011;37428;53.580;-1.666;2023-06-22T04:59:19;4.18;;;3.17;;
33987;SDS011;37428;53.580;-1.666;2023-06-22T05:02:22;3.90;;;2.85;;
33987;SDS011;37428;53.580;-1.666;2023-06-22T05:05:34;3.28;;;2.92;;
33987;SDS011;37428;53.580;-1.666;2023-06-22T05:08:36;3.38;;;3.08;;
33987;SDS011;37428;53.580;-1.666;2023-06-22T05:11:38;4.82;;;3.25;;
33987;SDS011;37428;53.580;-1.666;2023-06-22T05:14:42;4.25;;;2.83;;
33987;SDS011;37428;53.580;-1.666;2023-06-22T05:17:50;3.53;;;3.22;;
33987;SDS011;37428;53.580;-1.666;2023-06-22T05:20:54;5.07;;;3.00;;
33987;SDS011;37428;53.580;-1.666;2023-06-22T05:24:01;3.67;;;3.38;;
33987;SDS011;37428;53.580;-1.666;2023-06-22T05:27:05;3.45;;;3.08;;
33987;SDS011;37428;53.580;-1.666;2023-06-22T05:30:08;4.05;;;3.70;;
33987;SDS011;37428;53.580;-1.666;2023-06-22T05:33:11;3.95;;;3.65;;
33987;SDS011;37428;53.580;-1.666;2023-06-22T05:36:15;4.25;;;3.35;;
33987;SDS011;37428;53.580;-1.666;2023-06-22T05:39:17;4.53;;;3.25;;
33987;SDS011;37428;53.580;-1.666;2023-06-22T05:42:19;5.00;;;3.58;;
33987;SDS011;37428;53.580;-1.666;2023-06-22T05:45:21;6.10;;;3.60;;
33987;SDS011;37428;53.580;-1.666;2023-06-22T05:48:23;4.75;;;3.45;;
33987;SDS011;37428;53.580;-1.666;2023-06-22T05:51:35;6.13;;;3.63;;
33987;SDS011;37428;53.580;-1.666;2023-06-22T05:54:37;3.50;;;3.17;;
33987;SDS011;37428;53.580;-1.666;2023-06-22T05:57:44;4.18;;;3.53;;
33987;SDS011;37428;53.580;-1.666;2023-06-22T06:00:48;7.18;;;3.33;;
33987;SDS011;37428;53.580;-1.666;2023-06-22T06:03:50;3.88;;;3.13;;
33987;SDS011;37428;53.580;-1.666;2023-06-22T06:06:55;5.03;;;3.55;;
33987;SDS011;37428;53.580;-1.666;2023-06-22T06:10:04;3.65;;;3.33;;
33987;SDS011;37428;53.580;-1.666;2023-06-22T06:13:16;4.20;;;3.90;;
33987;SDS011;37428;53.580;-1.666;2023-06-22T06:16:18;4.80;;;3.88;;
33987;SDS011;37428;53.580;-1.666;2023-06-22T06:19:23;4.32;;;3.92;;
33987;SDS011;37428;53.580;-1.666;2023-06-22T06:22:32;5.28;;;3.83;;
33987;SDS011;37428;53.580;-1.666;2023-06-22T06:25:35;5.03;;;3.90;;
33987;SDS011;37428;53.580;-1.666;2023-06-22T06:28:44;4.07;;;3.60;;
33987;SDS011;37428;53.580;-1.666;2023-06-22T06:31:47;5.40;;;3.72;;
33987;SDS011;37428;53.580;-1.666;2023-06-22T06:34:49;5.82;;;3.70;;
33987;SDS011;37428;53.580;-1.666;2023-06-22T06:37:54;4.20;;;3.80;;
33987;SDS011;37428;53.580;-1.666;2023-06-22T06:40:57;4.63;;;3.83;;
33987;SDS011;37428;53.580;-1.666;2023-06-22T06:44:00;7.80;;;4.82;;
33987;SDS011;37428;53.580;-1.666;2023-06-22T06:47:02;3.78;;;3.47;;
33987;SDS011;37428;53.580;-1.666;2023-06-22T06:50:05;5.15;;;4.38;;
33987;SDS011;37428;53.580;-1.666;2023-06-22T06:53:10;5.68;;;4.07;;
33987;SDS011;37428;53.580;-1.666;2023-06-22T06:56:14;4.40;;;3.83;;
33987;SDS011;37428;53.580;-1.666;2023-06-22T06:59:17;4.28;;;3.75;;
33987;SDS011;37428;53.580;-1.666;2023-06-22T07:02:21;5.05;;;4.03;;
33987;SDS011;37428;53.580;-1.666;2023-06-22T07:05:25;5.03;;;3.80;;
33987;SDS011;37428;53.580;-1.666;2023-06-22T07:08:30;5.35;;;4.47;;
33987;SDS011;37428;53.580;-1.666;2023-06-22T07:11:32;7.43;;;5.38;;
33987;SDS011;37428;53.580;-1.666;2023-06-22T07:14:41;5.30;;;4.60;;
33987;SDS011;37428;53.580;-1.666;2023-06-22T07:17:43;5.63;;;4.53;;
33987;SDS011;37428;53.580;-1.666;2023-06-22T07:20:50;5.28;;;4.68;;
33987;SDS011;37428;53.580;-1.666;2023-06-22T07:23:54;5.05;;;4.30;;
33987;SDS011;37428;53.580;-1.666;2023-06-22T07:26:57;6.45;;;4.10;;
33987;SDS011;37428;53.580;-1.666;2023-06-22T07:29:59;4.80;;;4.30;;
33987;SDS011;37428;53.580;-1.666;2023-06-22T07:33:01;6.32;;;4.25;;
33987;SDS011;37428;53.580;-1.666;2023-06-22T07:36:04;4.22;;;3.80;;
33987;SDS011;37428;53.580;-1.666;2023-06-22T07:39:09;4.35;;;3.88;;
33987;SDS011;37428;53.580;-1.666;2023-06-22T07:42:15;4.40;;;3.97;;
33987;SDS011;37428;53.580;-1.666;2023-06-22T07:45:20;5.82;;;4.72;;
33987;SDS011;37428;53.580;-1.666;2023-06-22T07:51:24;6.00;;;5.20;;
33987;SDS011;37428;53.580;-1.666;2023-06-22T07:54:27;5.72;;;5.07;;
33987;SDS011;37428;53.580;-1.666;2023-06-22T07:57:30;5.75;;;5.20;;
33987;SDS011;37428;53.580;-1.666;2023-06-22T08:00:33;5.72;;;5.18;;
33987;SDS011;37428;53.580;-1.666;2023-06-22T08:06:38;5.07;;;4.60;;
33987;SDS011;37428;53.580;-1.666;2023-06-22T08:09:45;5.25;;;4.03;;
33987;SDS011;37428;53.580;-1.666;2023-06-22T08:12:48;5.15;;;4.65;;
33987;SDS011;37428;53.580;-1.666;2023-06-22T08:15:51;7.40;;;5.05;;
33987;SDS011;37428;53.580;-1.666;2023-06-22T08:18:53;6.65;;;4.53;;
33987;SDS011;37428;53.580;-1.666;2023-06-22T08:21:58;5.20;;;4.75;;
33987;SDS011;37428;53.580;-1.666;2023-06-22T08:25:01;8.50;;;5.78;;
33987;SDS011;37428;53.580;-1.666;2023-06-22T08:28:04;10.23;;;6.32;;
33987;SDS011;37428;53.580;-1.666;2023-06-22T08:31:07;6.60;;;4.70;;
33987;SDS011;37428;53.580;-1.666;2023-06-22T08:34:14;6.35;;;4.60;;
33987;SDS011;37428;53.580;-1.666;2023-06-22T08:37:16;4.65;;;4.25;;
33987;SDS011;37428;53.580;-1.666;2023-06-22T08:40:19;5.78;;;4.20;;
33987;SDS011;37428;53.580;-1.666;2023-06-22T08:43:22;6.82;;;4.47;;
33987;SDS011;37428;53.580;-1.666;2023-06-22T08:46:24;6.40;;;4.20;;
33987;SDS011;37428;53.580;-1.666;2023-06-22T08:49:30;5.28;;;4.88;;
33987;SDS011;37428;53.580;-1.666;2023-06-22T08:52:32;6.57;;;4.35;;
33987;SDS011;37428;53.580;-1.666;2023-06-22T08:55:35;4.65;;;3.70;;
33987;SDS011;37428;53.580;-1.666;2023-06-22T08:58:39;4.47;;;4.05;;
33987;SDS011;37428;53.580;-1.666;2023-06-22T09:01:43;6.22;;;4.40;;
33987;SDS011;37428;53.580;-1.666;2023-06-22T09:04:50;4.85;;;3.80;;
33987;SDS011;37428;53.580;-1.666;2023-06-22T09:10:58;4.18;;;3.88;;
33987;SDS011;37428;53.580;-1.666;2023-06-22T09:14:02;4.70;;;4.00;;
33987;SDS011;37428;53.580;-1.666;2023-06-22T09:17:24;4.95;;;3.95;;
33987;SDS011;37428;53.580;-1.666;2023-06-22T09:20:57;4.55;;;4.00;;
33987;SDS011;37428;53.580;-1.666;2023-06-22T09:24:15;4.80;;;4.40;;
33987;SDS011;37428;53.580;-1.666;2023-06-22T09:27:45;5.20;;;3.30;;
33987;SDS011;37428;53.580;-1.666;2023-06-22T09:30:48;4.75;;;4.20;;
33987;SDS011;37428;53.580;-1.666;2023-06-22T09:33:54;4.35;;;3.75;;
33987;SDS011;37428;53.580;-1.666;2023-06-22T09:37:02;7.22;;;3.78;;
33987;SDS011;37428;53.580;-1.666;2023-06-22T09:40:06;3.50;;;3.20;;
33987;SDS011;37428;53.580;-1.666;2023-06-22T09:43:16;5.53;;;4.40;;
33987;SDS011;37428;53.580;-1.666;2023-06-22T09:46:37;5.13;;;4.63;;
33987;SDS011;37428;53.580;-1.666;2023-06-22T09:51:24;6.10;;;4.32;;
33987;SDS011;37428;53.580;-1.666;2023-06-22T09:53:12;6.90;;;4.45;;
33987;SDS011;37428;53.580;-1.666;2023-06-22T09:56:14;5.25;;;3.78;;
33987;SDS011;37428;53.580;-1.666;2023-06-22T10:02:38;5.28;;;4.65;;
33987;SDS011;37428;53.580;-1.666;2023-06-22T10:05:42;5.78;;;4.57;;
33987;SDS011;37428;53.580;-1.666;2023-06-22T10:08:44;7.63;;;5.47;;
33987;SDS011;37428;53.580;-1.666;2023-06-22T10:12:02;7.10;;;5.40;;
33987;SDS011;37428;53.580;-1.666;2023-06-22T10:15:25;4.22;;;3.83;;
33987;SDS011;37428;53.580;-1.666;2023-06-22T10:18:28;9.10;;;5.43;;
33987;SDS011;37428;53.580;-1.666;2023-06-22T10:21:36;5.45;;;4.95;;
33987;SDS011;37428;53.580;-1.666;2023-06-22T10:24:40;5.53;;;4.97;;
33987;SDS011;37428;53.580;-1.666;2023-06-22T10:27:56;5.13;;;3.67;;
33987;SDS011;37428;53.580;-1.666;2023-06-22T10:31:02;4.80;;;4.40;;
33987;SDS011;37428;53.580;-1.666;2023-06-22T10:34:06;6.93;;;4.85;;
33987;SDS011;37428;53.580;-1.666;2023-06-22T10:37:10;4.60;;;4.20;;
33987;SDS011;37428;53.580;-1.666;2023-06-22T10:40:12;6.60;;;5.85;;
33987;SDS011;37428;53.580;-1.666;2023-06-22T10:43:18;5.93;;;4.88;;
33987;SDS011;37428;53.580;-1.666;2023-06-22T10:46:23;5.30;;;4.38;;
33987;SDS011;37428;53.580;-1.666;2023-06-22T10:49:27;7.60;;;4.85;;
33987;SDS011;37428;53.580;-1.666;2023-06-22T10:52:36;7.07;;;4.13;;
33987;SDS011;37428;53.580;-1.666;2023-06-22T10:55:53;4.22;;;3.85;;
33987;SDS011;37428;53.580;-1.666;2023-06-22T10:58:54;5.40;;;4.10;;
33987;SDS011;37428;53.580;-1.666;2023-06-22T11:01:58;5.22;;;4.50;;
33987;SDS011;37428;53.580;-1.666;2023-06-22T11:05:03;4.25;;;3.95;;
33987;SDS011;37428;53.580;-1.666;2023-06-22T11:08:05;4.68;;;4.28;;
33987;SDS011;37428;53.580;-1.666;2023-06-22T11:11:07;5.28;;;4.80;;
33987;SDS011;37428;53.580;-1.666;2023-06-22T11:14:09;4.65;;;4.25;;
33987;SDS011;37428;53.580;-1.666;2023-06-22T11:17:16;6.72;;;4.28;;
33987;SDS011;37428;53.580;-1.666;2023-06-22T11:20:18;3.92;;;3.53;;
33987;SDS011;37428;53.580;-1.666;2023-06-22T11:23:22;5.30;;;4.85;;
33987;SDS011;37428;53.580;-1.666;2023-06-22T11:26:26;5.35;;;4.75;;
33987;SDS011;37428;53.580;-1.666;2023-06-22T11:29:28;5.05;;;4.55;;
33987;SDS011;37428;53.580;-1.666;2023-06-22T11:32:33;8.25;;;5.47;;
33987;SDS011;37428;53.580;-1.666;2023-06-22T11:35:51;4.97;;;4.57;;
33987;SDS011;37428;53.580;-1.666;2023-06-22T11:38:53;5.32;;;4.93;;
33987;SDS011;37428;53.580;-1.666;2023-06-22T11:41:56;4.65;;;4.10;;
33987;SDS011;37428;53.580;-1.666;2023-06-22T11:45:01;6.10;;;4.40;;
33987;SDS011;37428;53.580;-1.666;2023-06-22T11:48:15;6.43;;;4.70;;
33987;SDS011;37428;53.580;-1.666;2023-06-22T11:51:51;5.40;;;4.90;;
33987;SDS011;37428;53.580;-1.666;2023-06-22T11:54:51;4.68;;;3.88;;
33987;SDS011;37428;53.580;-1.666;2023-06-22T11:57:54;7.22;;;4.50;;
33987;SDS011;37428;53.580;-1.666;2023-06-22T12:00:58;3.85;;;3.55;;
33987;SDS011;37428;53.580;-1.666;2023-06-22T12:04:02;4.70;;;4.30;;
33987;SDS011;37428;53.580;-1.666;2023-06-22T12:07:06;3.90;;;3.60;;
33987;SDS011;37428;53.580;-1.666;2023-06-22T12:10:08;7.43;;;4.40;;
33987;SDS011;37428;53.580;-1.666;2023-06-22T12:13:21;5.85;;;4.68;;
33987;SDS011;37428;53.580;-1.666;2023-06-22T12:16:23;6.88;;;5.28;;
33987;SDS011;37428;53.580;-1.666;2023-06-22T12:19:26;5.53;;;4.82;;
33987;SDS011;37428;53.580;-1.666;2023-06-22T12:22:30;5.88;;;4.65;;
33987;SDS011;37428;53.580;-1.666;2023-06-22T12:25:32;5.50;;;4.55;;
33987;SDS011;37428;53.580;-1.666;2023-06-22T12:28:34;5.70;;;5.22;;
33987;SDS011;37428;53.580;-1.666;2023-06-22T12:31:36;8.73;;;6.07;;
33987;SDS011;37428;53.580;-1.666;2023-06-22T12:34:49;5.55;;;5.05;;
33987;SDS011;37428;53.580;-1.666;2023-06-22T12:38:01;6.60;;;5.50;;
33987;SDS011;37428;53.580;-1.666;2023-06-22T12:41:26;7.65;;;5.50;;
33987;SDS011;37428;53.580;-1.666;2023-06-22T12:44:43;7.95;;;7.13;;
33987;SDS011;37428;53.580;-1.666;2023-06-22T12:47:45;9.73;;;7.60;;
33987;SDS011;37428;53.580;-1.666;2023-06-22T12:50:53;8.90;;;8.00;;
33987;SDS011;37428;53.580;-1.666;2023-06-22T12:53:55;9.48;;;7.10;;
33987;SDS011;37428;53.580;-1.666;2023-06-22T12:57:09;5.85;;;5.35;;
33987;SDS011;37428;53.580;-1.666;2023-06-22T13:00:14;6.93;;;6.20;;
33987;SDS011;37428;53.580;-1.666;2023-06-22T13:03:20;6.88;;;6.28;;
33987;SDS011;37428;53.580;-1.666;2023-06-22T13:06:38;5.95;;;5.38;;
33987;SDS011;37428;53.580;-1.666;2023-06-22T13:09:42;6.45;;;5.85;;
33987;SDS011;37428;53.580;-1.666;2023-06-22T13:12:46;5.50;;;4.32;;
33987;SDS011;37428;53.580;-1.666;2023-06-22T13:15:50;4.78;;;4.30;;
33987;SDS011;37428;53.580;-1.666;2023-06-22T13:18:52;5.13;;;4.63;;
33987;SDS011;37428;53.580;-1.666;2023-06-22T13:22:00;6.80;;;5.07;;
33987;SDS011;37428;53.580;-1.666;2023-06-22T13:25:13;8.45;;;6.25;;
33987;SDS011;37428;53.580;-1.666;2023-06-22T13:28:19;7.95;;;7.22;;
33987;SDS011;37428;53.580;-1.666;2023-06-22T13:31:21;7.35;;;6.80;;
33987;SDS011;37428;53.580;-1.666;2023-06-22T13:34:23;6.13;;;5.55;;
33987;SDS011;37428;53.580;-1.666;2023-06-22T13:37:26;8.32;;;6.50;;
33987;SDS011;37428;53.580;-1.666;2023-06-22T13:40:34;6.90;;;6.30;;
33987;SDS011;37428;53.580;-1.666;2023-06-22T13:43:38;8.75;;;6.35;;
33987;SDS011;37428;53.580;-1.666;2023-06-22T13:46:41;7.57;;;6.72;;
33987;SDS011;37428;53.580;-1.666;2023-06-22T13:49:43;7.60;;;6.90;;
33987;SDS011;37428;53.580;-1.666;2023-06-22T13:52:46;6.40;;;5.85;;
33987;SDS011;37428;53.580;-1.666;2023-06-22T13:55:59;6.70;;;6.20;;
33987;SDS011;37428;53.580;-1.666;2023-06-22T13:59:15;12.82;;;8.10;;
33987;SDS011;37428;53.580;-1.666;2023-06-22T14:02:17;10.55;;;6.30;;
33987;SDS011;37428;53.580;-1.666;2023-06-22T14:05:20;6.60;;;6.10;;
33987;SDS011;37428;53.580;-1.666;2023-06-22T14:08:24;6.38;;;5.70;;
33987;SDS011;37428;53.580;-1.666;2023-06-22T14:11:27;12.05;;;6.40;;
33987;SDS011;37428;53.580;-1.666;2023-06-22T14:14:31;8.30;;;6.03;;
33987;SDS011;37428;53.580;-1.666;2023-06-22T14:17:34;8.20;;;6.55;;
33987;SDS011;37428;53.580;-1.666;2023-06-22T14:20:42;6.55;;;5.88;;
33987;SDS011;37428;53.580;-1.666;2023-06-22T14:23:50;6.10;;;5.50;;
33987;SDS011;37428;53.580;-1.666;2023-06-22T14:26:53;5.43;;;4.93;;
33987;SDS011;37428;53.580;-1.666;2023-06-22T14:29:55;4.78;;;4.38;;
33987;SDS011;37428;53.580;-1.666;2023-06-22T14:32:59;4.97;;;4.22;;
33987;SDS011;37428;53.580;-1.666;2023-06-22T14:36:02;8.57;;;5.63;;
33987;SDS011;37428;53.580;-1.666;2023-06-22T14:42:08;5.32;;;4.10;;
33987;SDS011;37428;53.580;-1.666;2023-06-22T14:45:10;4.00;;;3.60;;
33987;SDS011;37428;53.580;-1.666;2023-06-22T14:48:13;4.03;;;3.63;;
33987;SDS011;37428;53.580;-1.666;2023-06-22T14:51:15;7.65;;;4.50;;
33987;SDS011;37428;53.580;-1.666;2023-06-22T14:54:24;6.47;;;4.32;;
33987;SDS011;37428;53.580;-1.666;2023-06-22T14:57:57;3.65;;;3.40;;
33987;SDS011;37428;53.580;-1.666;2023-06-22T15:00:49;5.43;;;3.97;;
33987;SDS011;37428;53.580;-1.666;2023-06-22T15:03:53;4.78;;;4.30;;
33987;SDS011;37428;53.580;-1.666;2023-06-22T15:06:55;6.95;;;4.72;;
33987;SDS011;37428;53.580;-1.666;2023-06-22T15:09:58;4.60;;;4.20;;
33987;SDS011;37428;53.580;-1.666;2023-06-22T15:13:02;5.20;;;4.70;;
33987;SDS011;37428;53.580;-1.666;2023-06-22T15:16:04;4.10;;;3.80;;
33987;SDS011;37428;53.580;-1.666;2023-06-22T15:19:06;5.50;;;4.13;;
33987;SDS011;37428;53.580;-1.666;2023-06-22T15:22:09;5.43;;;3.08;;
33987;SDS011;37428;53.580;-1.666;2023-06-22T15:25:13;5.82;;;3.70;;
33987;SDS011;37428;53.580;-1.666;2023-06-22T15:28:16;3.10;;;2.70;;
33987;SDS011;37428;53.580;-1.666;2023-06-22T15:31:21;4.50;;;3.17;;
33987;SDS011;37428;53.580;-1.666;2023-06-22T15:37:27;4.07;;;2.88;;
33987;SDS011;37428;53.580;-1.666;2023-06-22T15:40:31;4.70;;;2.60;;
33987;SDS011;37428;53.580;-1.666;2023-06-22T15:43:33;3.47;;;2.70;;
33987;SDS011;37428;53.580;-1.666;2023-06-22T15:46:35;3.22;;;2.92;;
33987;SDS011;37428;53.580;-1.666;2023-06-22T15:49:37;4.05;;;2.45;;
33987;SDS011;37428;53.580;-1.666;2023-06-22T15:55:48;2.88;;;2.53;;
33987;SDS011;37428;53.580;-1.666;2023-06-22T15:58:55;4.63;;;3.35;;
33987;SDS011;37428;53.580;-1.666;2023-06-22T16:01:58;4.95;;;2.80;;
33987;SDS011;37428;53.580;-1.666;2023-06-22T16:05:07;4.32;;;2.30;;
33987;SDS011;37428;53.580;-1.666;2023-06-22T16:08:24;3.28;;;2.70;;
33987;SDS011;37428;53.580;-1.666;2023-06-22T16:11:31;3.25;;;2.65;;
33987;SDS011;37428;53.580;-1.666;2023-06-22T16:14:34;2.70;;;2.50;;
33987;SDS011;37428;53.580;-1.666;2023-06-22T16:17:40;4.90;;;2.92;;
33987;SDS011;37428;53.580;-1.666;2023-06-22T16:20:42;5.32;;;2.65;;
33987;SDS011;37428;53.580;-1.666;2023-06-22T16:23:46;3.20;;;2.70;;
33987;SDS011;37428;53.580;-1.666;2023-06-22T16:26:51;3.47;;;3.03;;
33987;SDS011;37428;53.580;-1.666;2023-06-22T16:29:56;3.30;;;2.92;;
33987;SDS011;37428;53.580;-1.666;2023-06-22T16:32:58;4.32;;;3.20;;
33987;SDS011;37428;53.580;-1.666;2023-06-22T16:36:02;3.17;;;2.88;;
33987;SDS011;37428;53.580;-1.666;2023-06-22T16:39:20;5.15;;;3.13;;
33987;SDS011;37428;53.580;-1.666;2023-06-22T16:42:23;3.20;;;2.90;;
33987;SDS011;37428;53.580;-1.666;2023-06-22T16:45:31;3.75;;;3.22;;
33987;SDS011;37428;53.580;-1.666;2023-06-22T16:48:35;3.50;;;3.20;;
33987;SDS011;37428;53.580;-1.666;2023-06-22T16:51:37;3.15;;;2.92;;
33987;SDS011;37428;53.580;-1.666;2023-06-22T16:54:39;4.40;;;2.05;;
33987;SDS011;37428;53.580;-1.666;2023-06-22T16:57:52;3.05;;;2.45;;
33987;SDS011;37428;53.580;-1.666;2023-06-22T17:00:56;3.28;;;2.65;;
33987;SDS011;37428;53.580;-1.666;2023-06-22T17:04:01;5.05;;;2.85;;
33987;SDS011;37428;53.580;-1.666;2023-06-22T17:07:08;3.00;;;2.75;;
33987;SDS011;37428;53.580;-1.666;2023-06-22T17:10:43;3.75;;;2.80;;
33987;SDS011;37428;53.580;-1.666;2023-06-22T17:13:37;2.70;;;2.50;;
33987;SDS011;37428;53.580;-1.666;2023-06-22T17:16:39;3.53;;;2.67;;
33987;SDS011;37428;53.580;-1.666;2023-06-22T17:19:45;3.28;;;2.97;;
33987;SDS011;37428;53.580;-1.666;2023-06-22T17:22:50;3.90;;;2.47;;
33987;SDS011;37428;53.580;-1.666;2023-06-22T17:25:59;3.78;;;2.55;;
33987;SDS011;37428;53.580;-1.666;2023-06-22T17:29:09;3.22;;;2.92;;
33987;SDS011;37428;53.580;-1.666;2023-06-22T17:32:12;2.88;;;2.60;;
33987;SDS011;37428;53.580;-1.666;2023-06-22T17:35:21;5.07;;;2.78;;
33987;SDS011;37428;53.580;-1.666;2023-06-22T17:38:32;3.05;;;2.58;;
33987;SDS011;37428;53.580;-1.666;2023-06-22T17:41:44;4.28;;;2.50;;
33987;SDS011;37428;53.580;-1.666;2023-06-22T17:44:52;3.03;;;2.72;;
33987;SDS011;37428;53.580;-1.666;2023-06-22T17:48:22;4.13;;;2.40;;
33987;SDS011;37428;53.580;-1.666;2023-06-22T17:51:24;2.72;;;2.47;;
33987;SDS011;37428;53.580;-1.666;2023-06-22T17:54:43;2.90;;;2.47;;
33987;SDS011;37428;53.580;-1.666;2023-06-22T17:57:48;3.70;;;2.90;;
33987;SDS011;37428;53.580;-1.666;2023-06-22T18:00:58;2.78;;;2.47;;
33987;SDS011;37428;53.580;-1.666;2023-06-22T18:04:05;3.53;;;2.33;;
33987;SDS011;37428;53.580;-1.666;2023-06-22T18:07:15;3.42;;;2.67;;
33987;SDS011;37428;53.580;-1.666;2023-06-22T18:10:31;7.72;;;2.88;;
33987;SDS011;37428;53.580;-1.666;2023-06-22T18:13:49;3.58;;;2.40;;
33987;SDS011;37428;53.580;-1.666;2023-06-22T18:17:16;3.85;;;2.65;;
33987;SDS011;37428;53.580;-1.666;2023-06-22T18:20:37;4.78;;;2.72;;
33987;SDS011;37428;53.580;-1.666;2023-06-22T18:23:44;3.78;;;2.50;;
33987;SDS011;37428;53.580;-1.666;2023-06-22T18:27:06;3.83;;;2.63;;
33987;SDS011;37428;53.580;-1.666;2023-06-22T18:30:14;2.50;;;2.38;;
33987;SDS011;37428;53.580;-1.666;2023-06-22T18:33:19;6.28;;;2.45;;
33987;SDS011;37428;53.580;-1.666;2023-06-22T18:36:23;2.85;;;2.53;;
33987;SDS011;37428;53.580;-1.666;2023-06-22T18:43:15;3.22;;;2.30;;
33987;SDS011;37428;53.580;-1.666;2023-06-22T18:46:32;6.65;;;2.90;;
33987;SDS011;37428;53.580;-1.666;2023-06-22T18:50:02;2.70;;;2.47;;
33987;SDS011;37428;53.580;-1.666;2023-06-22T18:53:10;5.32;;;2.78;;
33987;SDS011;37428;53.580;-1.666;2023-06-22T18:56:13;2.58;;;2.20;;